createdAt,value
2022-12-05T00:02:23.583Z,39.30
2022-12-05T00:04:50.067Z,38.80
2022-12-05T00:07:16.483Z,36.40
2022-12-05T00:09:43.110Z,36.87
2022-12-05T00:12:09.544Z,32.10
2022-12-05T00:14:35.968Z,39.20
2022-12-05T00:17:02.546Z,35.47
2022-12-05T00:19:29.027Z,35.90
2022-12-05T00:21:55.725Z,37.90
2022-12-05T00:24:22.227Z,34.43
2022-12-05T00:26:48.985Z,31.10
2022-12-05T00:29:15.410Z,31.00
2022-12-05T00:31:42.029Z,34.83
2022-12-05T00:34:08.825Z,30.67
2022-12-05T00:36:36.112Z,32.47
2022-12-05T00:39:04.561Z,28.90
2022-12-05T00:41:31.147Z,29.83
2022-12-05T00:43:58.922Z,35.33
2022-12-05T00:46:26.356Z,31.67
2022-12-05T00:48:53.881Z,28.63
2022-12-05T00:51:22.751Z,30.30
2022-12-05T00:53:49.489Z,29.47
2022-12-05T00:56:19.963Z,30.50
2022-12-05T00:58:46.559Z,34.17
2022-12-05T01:01:16.556Z,30.23
2022-12-05T01:03:43.781Z,26.93
2022-12-05T01:06:10.871Z,32.73
2022-12-05T01:08:37.584Z,32.60
2022-12-05T01:11:04.814Z,32.80
2022-12-05T01:13:31.496Z,34.00
2022-12-05T01:15:57.926Z,35.83
2022-12-05T01:18:24.641Z,34.03
2022-12-05T01:20:51.434Z,30.50
2022-12-05T01:23:17.927Z,31.27
2022-12-05T01:25:45.325Z,37.13
2022-12-05T01:28:12.054Z,31.73
2022-12-05T01:30:42.925Z,32.83
2022-12-05T01:33:09.877Z,30.87
2022-12-05T01:35:37.368Z,35.60
2022-12-05T01:38:04.207Z,38.97
2022-12-05T01:40:31.086Z,28.80
2022-12-05T01:42:57.891Z,32.97
2022-12-05T01:45:37.992Z,28.00
2022-12-05T01:48:06.373Z,29.07
2022-12-05T01:50:33.610Z,30.40
2022-12-05T01:53:00.500Z,29.50
2022-12-05T01:55:27.239Z,31.17
2022-12-05T01:57:53.746Z,30.10
2022-12-05T02:00:20.706Z,29.43
2022-12-05T02:02:56.499Z,26.93
2022-12-05T02:05:28.163Z,33.57
2022-12-05T02:07:55.009Z,31.33
2022-12-05T02:10:21.579Z,40.40
2022-12-05T02:12:49.847Z,29.13
2022-12-05T02:15:43.050Z,33.73
2022-12-05T02:18:33.637Z,30.20
2022-12-05T02:21:18.883Z,33.47
2022-12-05T02:23:54.068Z,35.73
2022-12-05T02:26:35.560Z,77.73
2022-12-05T02:29:20.497Z,26.70
2022-12-05T02:31:46.984Z,44.67
2022-12-05T02:34:36.559Z,35.17
2022-12-05T02:37:11.757Z,31.67
2022-12-05T02:39:42.589Z,35.73
2022-12-05T02:42:24.290Z,33.70
2022-12-05T02:44:54.382Z,37.22
2022-12-05T02:47:22.690Z,35.93
2022-12-05T02:49:51.521Z,32.83
2022-12-05T02:52:18.565Z,31.27
2022-12-05T02:54:47.045Z,31.50
2022-12-05T02:57:14.393Z,31.23
2022-12-05T02:59:40.860Z,31.90
2022-12-05T03:02:22.639Z,33.03
2022-12-05T03:04:49.086Z,24.08
2022-12-05T03:07:17.503Z,25.60
2022-12-05T03:09:47.420Z,27.57
2022-12-05T03:12:19.153Z,32.20
2022-12-05T03:14:53.169Z,32.90
2022-12-05T03:17:23.247Z,29.53
2022-12-05T03:19:59.033Z,30.50
2022-12-05T03:22:28.682Z,28.03
2022-12-05T03:24:55.194Z,33.70
2022-12-05T03:27:45.313Z,30.40
2022-12-05T03:30:13.247Z,32.13
2022-12-05T03:32:42.862Z,33.73
2022-12-05T03:35:14.205Z,31.17
2022-12-05T03:38:00.027Z,31.48
2022-12-05T03:40:34.436Z,36.17
2022-12-05T03:43:00.909Z,30.37
2022-12-05T03:45:31.827Z,31.20
2022-12-05T03:48:02.552Z,29.63
2022-12-05T03:50:30.170Z,29.90
2022-12-05T03:53:26.200Z,32.37
2022-12-05T03:55:57.147Z,29.13
2022-12-05T03:58:28.696Z,29.83
2022-12-05T04:00:57.929Z,35.88
2022-12-05T04:03:39.785Z,29.97
2022-12-05T04:06:10.335Z,25.67
2022-12-05T04:08:40.355Z,34.97
2022-12-05T04:11:09.161Z,32.60
2022-12-05T04:13:47.781Z,32.20
2022-12-05T04:16:35.568Z,29.93
2022-12-05T04:19:06.827Z,27.67
2022-12-05T04:21:38.967Z,31.08
2022-12-05T04:24:35.473Z,32.60
2022-12-05T04:27:24.845Z,29.93
2022-12-05T04:30:02.876Z,33.93
2022-12-05T04:32:32.641Z,26.30
2022-12-05T04:35:01.653Z,33.07
2022-12-05T04:37:31.701Z,28.93
2022-12-05T04:40:01.799Z,36.43
2022-12-05T04:42:29.305Z,30.83
2022-12-05T04:45:09.742Z,28.47
2022-12-05T04:47:39.448Z,33.90
2022-12-05T04:50:07.923Z,28.43
2022-12-05T04:52:35.016Z,30.10
2022-12-05T04:55:05.089Z,29.50
2022-12-05T04:57:34.109Z,33.43
2022-12-05T05:00:00.911Z,35.63
2022-12-05T05:02:53.996Z,29.40
2022-12-05T05:05:20.739Z,30.27
2022-12-05T05:07:48.672Z,32.30
2022-12-05T05:10:16.437Z,31.13
2022-12-05T05:12:42.870Z,30.63
2022-12-05T05:15:09.627Z,33.40
2022-12-05T05:17:36.096Z,33.90
2022-12-05T05:20:21.143Z,31.03
2022-12-05T05:22:48.437Z,31.07
2022-12-05T05:25:14.867Z,34.60
2022-12-05T05:27:41.310Z,37.23
2022-12-05T05:30:08.003Z,34.27
2022-12-05T05:32:34.544Z,27.53
2022-12-05T05:35:00.981Z,30.77
2022-12-05T05:37:27.397Z,28.83
2022-12-05T05:39:53.783Z,31.37
2022-12-05T05:42:20.255Z,34.03
2022-12-05T05:44:46.950Z,33.03
2022-12-05T05:47:13.371Z,33.97
2022-12-05T05:49:39.815Z,27.63
2022-12-05T05:52:06.286Z,27.30
2022-12-05T05:54:32.720Z,33.57
2022-12-05T05:56:59.112Z,31.80
2022-12-05T05:59:25.551Z,33.87
2022-12-05T06:01:51.980Z,25.17
2022-12-05T06:04:18.418Z,39.43
2022-12-05T06:06:44.877Z,31.27
2022-12-05T06:09:11.463Z,31.60
2022-12-05T06:11:37.912Z,34.77
2022-12-05T06:14:04.487Z,31.20
2022-12-05T06:16:31.599Z,36.33
2022-12-05T06:18:58.729Z,30.03
2022-12-05T06:21:25.218Z,31.60
2022-12-05T06:23:51.821Z,34.30
2022-12-05T06:26:19.741Z,31.83
2022-12-05T06:28:46.501Z,34.87
2022-12-05T06:31:14.397Z,31.30
2022-12-05T06:33:40.949Z,32.13
2022-12-05T06:36:11.693Z,34.00
2022-12-05T06:38:42.051Z,29.17
2022-12-05T06:41:09.912Z,32.60
2022-12-05T06:43:36.396Z,30.90
2022-12-05T06:46:06.243Z,34.23
2022-12-05T06:48:32.798Z,33.70
2022-12-05T06:50:59.408Z,28.97
2022-12-05T06:53:25.966Z,35.60
2022-12-05T06:55:56.671Z,37.13
2022-12-05T06:58:23.198Z,29.63
2022-12-05T07:01:08.138Z,29.87
2022-12-05T07:03:34.632Z,31.37
2022-12-05T07:06:04.987Z,32.47
2022-12-05T07:08:31.482Z,29.30
2022-12-05T07:10:58.051Z,33.60
2022-12-05T07:13:24.535Z,34.30
2022-12-05T07:15:51.222Z,33.73
2022-12-05T07:18:18.270Z,29.60
2022-12-05T07:21:10.876Z,32.60
2022-12-05T07:23:31.519Z,32.73
2022-12-05T07:25:57.951Z,34.07
2022-12-05T07:28:24.997Z,44.07
2022-12-05T07:31:04.205Z,35.10
2022-12-05T07:33:30.883Z,30.90
2022-12-05T07:36:04.987Z,30.57
2022-12-05T07:38:31.590Z,34.40
2022-12-05T07:40:58.202Z,32.03
2022-12-05T07:43:24.931Z,33.90
2022-12-05T07:45:51.556Z,30.90
2022-12-05T07:48:19.003Z,30.03
2022-12-05T07:50:46.020Z,33.57
2022-12-05T07:53:12.653Z,38.20
2022-12-05T07:55:39.382Z,41.53
2022-12-05T07:58:05.959Z,35.07
2022-12-05T08:00:32.440Z,29.30
2022-12-05T08:02:58.977Z,39.50
2022-12-05T08:05:25.537Z,37.83
2022-12-05T08:07:52.073Z,39.60
2022-12-05T08:10:18.547Z,32.23
2022-12-05T08:12:45.007Z,31.30
2022-12-05T08:15:11.564Z,33.27
2022-12-05T08:17:37.999Z,34.93
2022-12-05T08:20:04.681Z,36.30
2022-12-05T08:22:31.093Z,33.97
2022-12-05T08:24:57.572Z,33.37
2022-12-05T08:27:24.010Z,34.07
2022-12-05T08:29:50.481Z,28.93
2022-12-05T08:32:17.028Z,32.13
2022-12-05T08:34:43.554Z,39.07
2022-12-05T08:37:10.123Z,30.10
2022-12-05T08:39:38.599Z,37.43
2022-12-05T08:42:05.500Z,27.87
2022-12-05T08:44:31.991Z,31.10
2022-12-05T08:46:58.443Z,32.93
2022-12-05T08:49:24.858Z,34.40
2022-12-05T08:51:51.302Z,31.53
2022-12-05T08:54:17.929Z,31.20
2022-12-05T08:56:44.416Z,30.77
2022-12-05T08:59:10.953Z,35.07
2022-12-05T09:01:39.337Z,33.23
2022-12-05T09:04:06.291Z,34.50
2022-12-05T09:06:33.156Z,36.20
2022-12-05T09:09:00.549Z,32.60
2022-12-05T09:11:28.506Z,35.77
2022-12-05T09:13:55.724Z,36.27
2022-12-05T09:16:23.895Z,35.07
2022-12-05T09:18:50.689Z,34.13
2022-12-05T09:21:22.712Z,36.47
2022-12-05T09:23:49.236Z,30.53
2022-12-05T09:26:17.509Z,31.10
2022-12-05T09:28:44.407Z,36.47
2022-12-05T09:31:12.444Z,35.33
2022-12-05T09:33:39.010Z,33.83
2022-12-05T09:36:06.722Z,35.77
2022-12-05T09:38:33.589Z,31.07
2022-12-05T09:41:21.732Z,33.47
2022-12-05T09:44:03.135Z,36.30
2022-12-05T09:46:36.842Z,25.63
2022-12-05T09:49:04.683Z,33.57
2022-12-05T09:51:31.587Z,33.20
2022-12-05T09:53:58.111Z,35.27
2022-12-05T09:56:28.937Z,35.80
2022-12-05T09:58:56.233Z,32.43
2022-12-05T10:01:42.486Z,30.13
2022-12-05T10:04:21.203Z,33.67
2022-12-05T10:07:07.266Z,41.07
2022-12-05T10:09:39.596Z,35.10
2022-12-05T10:12:14.739Z,35.13
2022-12-05T10:15:02.488Z,38.70
2022-12-05T10:17:32.437Z,38.70
2022-12-05T10:20:00.753Z,40.50
2022-12-05T10:22:50.346Z,34.23
2022-12-05T10:25:21.804Z,36.93
2022-12-05T10:27:50.790Z,30.67
2022-12-05T10:30:21.239Z,33.23
2022-12-05T10:32:55.336Z,40.90
2022-12-05T10:35:23.494Z,35.87
2022-12-05T10:37:51.387Z,40.67
2022-12-05T10:40:18.546Z,40.93
2022-12-05T10:42:45.495Z,38.07
2022-12-05T10:45:17.018Z,39.67
2022-12-05T10:47:43.594Z,38.03
2022-12-05T10:50:22.242Z,41.10
2022-12-05T10:52:48.955Z,37.87
2022-12-05T10:55:17.430Z,39.10
2022-12-05T10:57:49.007Z,35.70
2022-12-05T11:00:16.082Z,40.00
2022-12-05T11:02:43.081Z,36.83
2022-12-05T11:05:09.979Z,39.80
2022-12-05T11:07:48.524Z,35.97
2022-12-05T11:10:30.905Z,40.33
2022-12-05T11:12:58.624Z,39.27
2022-12-05T11:15:27.730Z,44.57
2022-12-05T11:17:55.244Z,38.33
2022-12-05T11:20:22.005Z,35.67
2022-12-05T11:22:56.463Z,32.77
2022-12-05T11:25:33.429Z,37.07
2022-12-05T11:28:01.801Z,42.03
2022-12-05T11:30:29.359Z,33.67
2022-12-05T11:33:12.413Z,37.90
2022-12-05T11:35:39.112Z,38.60
2022-12-05T11:38:05.732Z,40.00
2022-12-05T11:40:47.590Z,37.90
2022-12-05T11:45:40.356Z,51.37
2022-12-05T11:48:25.538Z,40.23
2022-12-05T11:51:10.348Z,43.20
2022-12-05T11:53:45.718Z,38.37
2022-12-05T11:56:31.016Z,38.63
2022-12-05T11:59:08.671Z,38.37
2022-12-05T12:01:45.680Z,42.40
2022-12-05T12:04:31.084Z,45.20
2022-12-05T12:07:06.776Z,43.00
2022-12-05T12:09:39.498Z,43.40
2022-12-05T12:12:18.286Z,37.13
2022-12-05T12:15:11.406Z,46.00
2022-12-05T12:17:42.945Z,43.23
2022-12-05T12:20:17.485Z,43.17
2022-12-05T12:22:50.925Z,36.73
2022-12-05T12:25:17.361Z,44.27
2022-12-05T12:27:44.887Z,37.57
2022-12-05T12:30:15.194Z,43.90
2022-12-05T12:32:47.895Z,43.23
2022-12-05T12:35:14.350Z,43.50
2022-12-05T12:37:52.402Z,44.53
2022-12-05T12:40:18.845Z,48.70
2022-12-05T12:42:56.298Z,40.87
2022-12-05T12:45:41.267Z,41.77
2022-12-05T12:48:16.624Z,39.10
2022-12-05T12:50:44.394Z,39.00
2022-12-05T12:53:16.697Z,38.60
2022-12-05T12:55:58.240Z,39.97
2022-12-05T12:58:35.006Z,39.78
2022-12-05T13:01:16.745Z,33.57
2022-12-05T13:03:51.237Z,41.22
2022-12-05T13:06:21.346Z,38.43
2022-12-05T13:08:51.227Z,37.97
2022-12-05T13:11:18.514Z,37.93
2022-12-05T13:13:53.161Z,42.33
2022-12-05T13:16:28.468Z,45.83
2022-12-05T13:18:56.067Z,37.20
2022-12-05T13:21:22.810Z,37.93
2022-12-05T13:23:51.180Z,38.87
2022-12-05T13:26:17.859Z,39.87
2022-12-05T13:28:50.463Z,41.90
2022-12-05T13:31:19.350Z,39.07
2022-12-05T13:33:47.115Z,37.87
2022-12-05T13:36:34.186Z,44.93
2022-12-05T13:39:21.335Z,45.83
2022-12-05T13:42:08.462Z,46.23
2022-12-05T13:44:36.908Z,44.83
2022-12-05T13:47:07.307Z,43.00
2022-12-05T13:49:38.354Z,41.57
2022-12-05T13:52:09.872Z,39.75
2022-12-05T13:54:42.379Z,39.33
2022-12-05T13:57:28.767Z,40.43
2022-12-05T14:00:19.892Z,38.67
2022-12-05T14:02:47.342Z,40.30
2022-12-05T14:05:13.897Z,40.03
2022-12-05T14:07:50.378Z,39.90
2022-12-05T14:10:21.229Z,42.33
2022-12-05T14:12:52.062Z,39.67
2022-12-05T14:15:49.688Z,39.03
2022-12-05T14:18:18.557Z,38.73
2022-12-05T14:20:57.124Z,37.93
2022-12-05T14:23:35.821Z,36.30
2022-12-05T14:26:15.569Z,39.73
2022-12-05T14:28:45.065Z,37.60
2022-12-05T14:31:18.572Z,39.50
2022-12-05T14:33:45.083Z,39.00
2022-12-05T14:36:16.961Z,38.43
2022-12-05T14:38:44.337Z,40.30
2022-12-05T14:41:23.036Z,42.90
2022-12-05T14:43:56.347Z,34.73
2022-12-05T14:46:28.673Z,37.93
2022-12-05T14:48:56.211Z,38.70
2022-12-05T14:51:28.899Z,37.97
2022-12-05T14:53:55.710Z,39.10
2022-12-05T14:56:24.382Z,40.20
2022-12-05T14:59:04.540Z,33.67
2022-12-05T15:02:09.515Z,42.40
2022-12-05T15:04:35.989Z,41.50
2022-12-05T15:07:04.473Z,39.90
2022-12-05T15:09:41.836Z,40.17
2022-12-05T15:12:20.203Z,42.30
2022-12-05T15:14:49.764Z,39.20
2022-12-05T15:17:18.558Z,42.40
2022-12-05T15:19:52.324Z,41.43
2022-12-05T15:22:21.377Z,47.10
2022-12-05T15:24:47.826Z,50.10
2022-12-05T15:27:14.474Z,52.50
2022-12-05T15:29:41.265Z,44.90
2022-12-05T15:32:10.544Z,46.57
2022-12-05T15:34:39.727Z,47.77
2022-12-05T15:37:15.622Z,44.50
2022-12-05T15:40:00.917Z,44.93
2022-12-05T15:42:40.930Z,46.27
2022-12-05T15:45:13.754Z,41.33
2022-12-05T15:47:41.143Z,41.43
2022-12-05T15:50:20.119Z,43.73
2022-12-05T15:52:51.410Z,43.17
2022-12-05T15:55:20.815Z,50.25
2022-12-05T15:57:50.407Z,49.80
2022-12-05T16:00:18.364Z,54.63
2022-12-05T16:02:47.815Z,63.57
2022-12-05T16:05:27.041Z,58.70
2022-12-05T16:07:54.437Z,49.63
2022-12-05T16:10:24.743Z,56.57
2022-12-05T16:12:54.328Z,62.47
2022-12-05T16:15:25.104Z,72.70
2022-12-05T16:17:59.165Z,84.63
2022-12-05T16:20:29.606Z,86.17
2022-12-05T16:22:58.106Z,79.07
2022-12-05T16:25:26.651Z,88.70
2022-12-05T16:28:04.363Z,70.53
2022-12-05T16:30:31.233Z,69.70
2022-12-05T16:33:02.423Z,77.93
2022-12-05T16:35:30.954Z,85.90
2022-12-05T16:38:12.454Z,90.67
2022-12-05T16:40:40.116Z,120.88
2022-12-05T16:43:27.417Z,130.00
2022-12-05T16:45:55.550Z,125.47
2022-12-05T16:48:22.012Z,114.87
2022-12-05T16:50:48.494Z,100.63
2022-12-05T16:53:18.136Z,72.17
2022-12-05T16:55:44.973Z,59.83
2022-12-05T16:58:14.117Z,66.83
2022-12-05T17:00:40.550Z,75.80
2022-12-05T17:03:32.842Z,73.73
2022-12-05T17:05:57.213Z,67.47
2022-12-05T17:08:24.176Z,76.63
2022-12-05T17:10:50.891Z,79.30
2022-12-05T17:13:18.561Z,81.57
2022-12-05T17:15:45.748Z,89.20
2022-12-05T17:18:13.409Z,77.70
2022-12-05T17:20:41.224Z,79.77
2022-12-05T17:23:11.152Z,71.53
2022-12-05T17:25:38.581Z,62.93
2022-12-05T17:28:05.019Z,59.17
2022-12-05T17:30:34.316Z,54.43
2022-12-05T17:33:00.785Z,54.33
2022-12-05T17:35:28.502Z,63.47
2022-12-05T17:37:54.938Z,57.77
2022-12-05T17:40:21.339Z,61.67
2022-12-05T17:42:48.700Z,64.73
2022-12-05T17:45:16.191Z,69.40
2022-12-05T17:47:43.168Z,62.30
2022-12-05T17:50:17.211Z,55.40
2022-12-05T17:52:43.701Z,65.07
2022-12-05T17:55:14.910Z,60.53
2022-12-05T17:57:41.335Z,65.97
2022-12-05T18:00:08.019Z,67.80
2022-12-05T18:02:34.588Z,62.87
2022-12-05T18:05:01.194Z,59.13
2022-12-05T18:07:28.039Z,54.80
2022-12-05T18:09:54.507Z,55.40
2022-12-05T18:12:21.040Z,47.40
2022-12-05T18:14:47.444Z,53.10
2022-12-05T18:17:13.936Z,54.87
2022-12-05T18:19:40.381Z,50.53
2022-12-05T18:22:06.807Z,60.53
2022-12-05T18:24:33.382Z,66.03
2022-12-05T18:26:59.834Z,66.30
2022-12-05T18:29:26.351Z,67.37
2022-12-05T18:31:56.013Z,67.23
2022-12-05T18:34:22.552Z,69.20
2022-12-05T18:36:49.356Z,62.17
2022-12-05T18:39:15.871Z,60.40
2022-12-05T18:41:42.811Z,57.73
2022-12-05T18:44:10.123Z,57.20
2022-12-05T18:46:37.449Z,70.97
2022-12-05T18:49:04.452Z,70.50
2022-12-05T18:51:31.154Z,64.90
2022-12-05T18:53:57.653Z,65.13
2022-12-05T18:56:28.725Z,71.37
2022-12-05T18:58:58.885Z,66.72
2022-12-05T19:01:26.665Z,60.03
2022-12-05T19:03:54.123Z,64.23
2022-12-05T19:06:24.775Z,63.53
2022-12-05T19:08:54.326Z,60.00
2022-12-05T19:11:20.891Z,69.73
2022-12-05T19:13:48.064Z,87.47
2022-12-05T19:16:17.046Z,73.80
2022-12-05T19:18:43.626Z,67.77
2022-12-05T19:21:10.419Z,68.90
2022-12-05T19:23:37.033Z,65.93
2022-12-05T19:26:07.753Z,72.33
2022-12-05T19:28:35.264Z,73.38
2022-12-05T19:31:12.190Z,77.17
2022-12-05T19:33:40.190Z,66.03
2022-12-05T19:36:11.641Z,79.20
2022-12-05T19:38:39.045Z,55.80
2022-12-05T19:41:06.825Z,57.23
2022-12-05T19:43:33.979Z,51.83
2022-12-05T19:46:04.588Z,62.27
2022-12-05T19:48:31.239Z,52.20
2022-12-05T19:50:58.480Z,50.73
2022-12-05T19:53:25.398Z,49.07
2022-12-05T19:55:51.916Z,45.30
2022-12-05T19:58:18.753Z,46.97
2022-12-05T20:00:45.275Z,44.20
2022-12-05T20:03:12.422Z,47.47
2022-12-05T20:05:39.065Z,56.10
2022-12-05T20:08:05.571Z,50.73
2022-12-05T20:10:33.695Z,55.03
2022-12-05T20:13:02.626Z,60.83
2022-12-05T20:15:32.701Z,63.47
2022-12-05T20:17:59.425Z,58.13
2022-12-05T20:20:25.929Z,56.73
2022-12-05T20:22:53.669Z,55.07
2022-12-05T20:25:20.249Z,59.20
2022-12-05T20:27:46.797Z,179.87
2022-12-05T20:30:13.337Z,84.90
2022-12-05T20:32:39.762Z,54.83
2022-12-05T20:35:06.332Z,55.67
2022-12-05T20:37:35.606Z,57.27
2022-12-05T20:40:02.378Z,56.57
2022-12-05T20:42:29.167Z,58.17
2022-12-05T20:44:55.676Z,60.30
2022-12-05T20:47:22.319Z,97.73
2022-12-05T20:49:48.802Z,156.83
2022-12-05T20:52:15.295Z,62.50
2022-12-05T20:54:41.705Z,51.57
2022-12-05T20:57:08.617Z,57.83
2022-12-05T20:59:35.116Z,54.23
2022-12-05T21:02:01.739Z,56.77
2022-12-05T21:04:28.549Z,63.87
2022-12-05T21:06:54.967Z,61.43
2022-12-05T21:09:28.648Z,59.33
2022-12-05T21:11:55.631Z,61.80
2022-12-05T21:14:22.250Z,53.60
2022-12-05T21:16:48.747Z,62.20
2022-12-05T21:19:15.573Z,61.42
2022-12-05T21:21:42.231Z,60.15
2022-12-05T21:24:09.815Z,52.77
2022-12-05T21:26:36.781Z,53.10
2022-12-05T21:29:04.392Z,56.25
2022-12-05T21:31:32.297Z,51.90
2022-12-05T21:34:00.543Z,56.08
2022-12-05T21:36:28.557Z,55.95
2022-12-05T21:38:56.564Z,55.80
2022-12-05T21:41:24.254Z,57.63
2022-12-05T21:43:54.611Z,55.43
2022-12-05T21:46:22.485Z,57.22
2022-12-05T21:48:48.984Z,61.10
2022-12-05T21:51:15.564Z,59.97
2022-12-05T21:53:42.373Z,70.03
2022-12-05T21:56:14.042Z,213.60
2022-12-05T22:01:09.707Z,62.23
2022-12-05T22:03:36.753Z,64.70
2022-12-05T22:06:09.417Z,55.20
2022-12-05T22:08:36.458Z,76.30
2022-12-05T22:11:13.123Z,252.57
2022-12-05T22:13:39.933Z,68.73
2022-12-05T22:16:07.398Z,65.77
2022-12-05T22:18:34.343Z,107.73
2022-12-05T22:21:03.136Z,62.77
2022-12-05T22:23:29.942Z,57.08
2022-12-05T22:26:03.932Z,58.63
2022-12-05T22:28:30.575Z,47.27
2022-12-05T22:30:58.232Z,46.40
2022-12-05T22:33:24.916Z,49.50
2022-12-05T22:35:56.713Z,50.07
2022-12-05T22:38:23.899Z,59.67
2022-12-05T22:40:57.129Z,61.13
2022-12-05T22:43:24.585Z,68.63
2022-12-05T22:45:51.481Z,59.03
2022-12-05T22:48:17.988Z,63.30
2022-12-05T22:50:47.921Z,57.23
2022-12-05T22:53:15.214Z,54.00
2022-12-05T22:55:41.769Z,56.30
2022-12-05T22:58:08.212Z,63.53
2022-12-05T23:00:34.662Z,57.10
2022-12-05T23:03:01.166Z,84.47
2022-12-05T23:05:27.708Z,100.20
2022-12-05T23:07:54.236Z,133.50
2022-12-05T23:10:20.807Z,67.20
2022-12-05T23:12:47.261Z,95.80
2022-12-05T23:15:13.757Z,61.53
2022-12-05T23:17:41.253Z,51.72
2022-12-05T23:20:08.185Z,56.77
2022-12-05T23:22:35.064Z,103.80
2022-12-05T23:25:01.516Z,268.77
2022-12-05T23:27:29.069Z,98.23
2022-12-05T23:29:55.591Z,67.93
2022-12-05T23:32:22.097Z,60.15
2022-12-05T23:34:48.554Z,59.13
2022-12-05T23:37:15.013Z,53.10
2022-12-05T23:39:41.477Z,54.00
2022-12-05T23:42:13.613Z,50.15
2022-12-05T23:44:41.676Z,49.15
2022-12-05T23:47:09.604Z,45.03
2022-12-05T23:49:36.205Z,51.78
2022-12-05T23:52:02.756Z,46.05
2022-12-05T23:54:29.235Z,54.67
2022-12-05T23:56:55.647Z,160.77
2022-12-05T23:59:22.374Z,60.20
